Tiempo atmosférico en la estación meteorológica de Villanueva De Los Infantes, Ciudad Real (870 m.)



Fecha
DESCASC
Temp. máxima en grados centígrados (hora)
DESCASC
Temp. mínima en grados centígrados (hora)
DESCASC
Temp. media en grados centígrados
DESCASC
Racha de viento máxima en m/sg (hora)
DESCASC
Velocidad máxima media en intervalos de 10 minutos(hora)
DESCASC
Precipitaciones diarias en mm
DESCASC
Precipitaciones de 00:00 a 06:00 en mm
DESCASC
Precipitaciones de 06:00 a 12:00 en mm
DESCASC
Precipitaciones de 12:00 a 18:00 en mm
DESCASC
Precipitaciones de 18:00 a 24:00 en mm
DESCASC
13-11-2019 -- (--) -- (--) -- -- (--) -- (--) -- -- -- -- 0
12-11-2019 -- (--) -- (--) -- -- (--) -- (--) -- -- -- -- --
11-11-2019 -- (--) -- (--) -- -- (--) -- (--) -- -- -- -- --
24-10-2019 -- (--) -- (--) -- -- (--) -- (--) -- -- -- 0 --
25-10-2019 -- (--) -- (--) -- -- (--) -- (--) -- -- -- 0 --
26-10-2019 -- (--) -- (--) -- -- (--) -- (--) -- -- -- 0 --
27-10-2019 -- (--) -- (--) -- -- (--) -- (--) -- -- -- -- --
28-10-2019 -- (--) -- (--) -- -- (--) -- (--) -- -- -- -- --
29-10-2019 -- (--) -- (--) -- -- (--) -- (--) -- -- -- 0 0
10-11-2019 -- (--) -- (--) -- -- (--) -- (--) -- -- -- -- --
31-10-2019 -- (--) -- (--) -- -- (--) -- (--) -- -- -- 0 0
01-11-2019 -- (--) -- (--) -- -- (--) -- (--) -- -- -- 1.2 0
09-11-2019 -- (--) -- (--) -- -- (--) -- (--) -- -- -- -- --
06-11-2019 11.6 (13:50) 3.5 (00:00) 7.6 6.11 (16:30) 3.89 (14:10) 0 0 0 0 0
02-11-2019 18.3 (15:10) 12.9 (00:00) 15.6 15 (14:20) 8.89 (14:20) 0 0 0 0 0
08-11-2019 -- (--) -- (--) -- -- (--) -- (--) -- 0 0 0 --
15-11-2019 5.5 (13:50) 1.7 (00:00) 3.6 11.94 (00:10) 6.94 (00:20) 0.6 0 0 0 0.6
16-11-2019 6.7 (15:40) -0.5 (-00:0) 3.1 6.11 (12:10) 3.61 (23:59) 0 0 0 0 0
05-11-2019 11.2 (16:00) 6.3 (00:00) 8.8 13.61 (09:20) 7.78 (00:20) 1.2 1.2 0 0 0
18-10-2019 22.1 (15:20) 10.5 (00:00) 16.3 9.72 (14:40) 5.83 (16:30) 0 0 0 0 0
30-10-2019 20.1 (15:50) 10.9 (00:00) 15.5 5.56 (16:20) 3.06 (16:10) 0 0 0 0 0
22-10-2019 10.8 (14:00) 6.3 (00:00) 8.6 9.44 (15:10) 7.22 (15:20) 0.4 0 0 0 0.4
21-10-2019 16.1 (16:40) 5.5 (00:00) 10.8 7.22 (22:40) 5.83 (23:40) 0 0 0 0 0
19-10-2019 19.2 (17:00) 12.8 (00:00) 16 14.72 (17:20) 10.83 (17:50) 0 0 0 0 0
20-10-2019 14.1 (00:00) 6.9 (00:00) 10.5 14.72 (01:30) 10 (01:30) 1.8 1.6 0.2 0 0
23-10-2019 7.5 (23:40) 5.5 (00:00) 6.5 12.22 (14:40) 7.78 (14:40) 7.2 0.2 0.6 5.4 1
04-11-2019 14.5 (15:20) 9.8 (00:00) 12.2 16.67 (23:20) 11.11 (23:20) 2.8 0 1 0 1.8
07-11-2019 12.8 (14:10) 4.3 (00:00) 8.6 12.5 (14:10) 7.5 (14:20) 1.8 0 1.2 0.6 0
03-11-2019 14.7 (15:40) 9.7 (00:00) 12.2 16.39 (01:40) 10.56 (03:20) 2.8 0 2.8 0 0
14-11-2019 9.8 (00:00) 1.8 (00:00) 5.8 15.28 (15:30) 10 (15:30) 10.2 0 6 4.2 0

Gráficas

Temp. máximas Temp. mínimas Temp. medias Precipitaciones Rachas de viento máximas Velocidades máximas media en intervalos de 10 minutos

Datos horarios

Fecha y hora oficial Temperatura (ºC) Velocidad del viento (km/h) Dirección del viento Racha (km/h) Dirección de racha Precipitación (mm) Presión (hPa) Tendencia (hPa) Humedad (%)
2019-11-16 23:00:00 1.7 9 Sudoeste 16 Oeste 0 -- -- 79
2019-11-16 22:00:00 2 7 Sudoeste 10 Sudoeste 0 -- -- 79
2019-11-16 21:00:00 2.8 4 Sudoeste 13 Oeste 0 -- -- 76
2019-11-16 20:00:00 3.6 9 Oeste 16 Oeste 0 -- -- 72
2019-11-16 19:00:00 4.4 9 Oeste 15 Oeste 0 -- -- 69
2019-11-16 18:00:00 5.8 8 Oeste 15 Oeste 0 -- -- 66
2019-11-16 17:00:00 6.3 10 Oeste 18 Oeste 0 -- -- 66
2019-11-16 16:00:00 6.5 10 Noroeste 19 Norte 0 -- -- 64
2019-11-16 15:00:00 5.9 9 Noroeste 21 Noroeste 0 -- -- 70
2019-11-16 14:00:00 6 10 Norte 19 Norte 0 -- -- 70
2019-11-16 13:00:00 5.2 10 Noroeste 22 Norte 0 -- -- 74
2019-11-16 12:00:00 4 11 Noroeste 18 Norte 0 -- -- 79
2019-11-16 11:00:00 2.3 5 Noroeste 14 Norte 0 -- -- 86
2019-11-16 10:00:00 1.1 5 Norte 9 Norte 0 -- -- 88
2019-11-16 09:00:00 -0.1 2 Norte 10 Norte 0 -- -- 89
2019-11-16 08:00:00 -0.1 4 Noroeste 9 Norte 0 -- -- 89
2019-11-16 07:00:00 -0.5 4 Noroeste 8 Norte 0 -- -- 91
2019-11-16 06:00:00 0 4 Noroeste 6 Norte 0 -- -- 90
2019-11-16 05:00:00 0.5 3 Noroeste 8 Oeste 0 -- -- 90
2019-11-16 04:00:00 0.9 5 Noroeste 9 Oeste 0 -- -- 91
2019-11-16 03:00:00 1 4 Oeste 9 Oeste 0 -- -- 92
2019-11-16 02:00:00 1.5 6 Oeste 9 Oeste 0 -- -- 94
2019-11-16 01:00:00 2 4 Sur 8 Sudoeste 0 -- -- 93
2019-11-16 00:00:00 2.3 4 Sudoeste 11 Sudoeste 0 -- -- 93
2019-11-15 23:00:00 2.4 8 Sudoeste 17 Sudoeste 0 -- -- 92
2019-11-15 22:00:00 2.5 8 Sur 10 Sur 0 -- -- 93
2019-11-15 21:00:00 2.6 6 Sudoeste 11 Sudoeste 0 -- -- 92
2019-11-15 20:00:00 2.7 6 Sudoeste 17 Sudoeste 0.4 -- -- 91
2019-11-15 19:00:00 2.9 10 Sudoeste 24 Sudoeste 0.2 -- -- 88
2019-11-15 18:00:00 3.4 9 Sudoeste 22 Sudoeste 0 -- -- 87
2019-11-15 17:00:00 3.6 14 Sudoeste 27 Sudoeste 0 -- -- 86
2019-11-15 16:00:00 3.6 19 Sudoeste 30 Sudoeste 0 -- -- 86
2019-11-15 15:00:00 4 18 Sudoeste 27 Sudoeste 0 -- -- 84
2019-11-15 14:00:00 5.2 17 Oeste 26 Sudoeste 0 -- -- 76
2019-11-15 13:00:00 4.2 14 Oeste 22 Oeste 0 -- -- 82
2019-11-15 12:00:00 3.5 15 Oeste 23 Oeste 0 -- -- 84
2019-11-15 11:00:00 2.6 14 Oeste 26 Oeste 0 -- -- 87
2019-11-15 10:00:00 2.1 14 Oeste 27 Oeste 0 -- -- 88
2019-11-15 09:00:00 1.8 15 Oeste 27 Oeste 0 -- -- 90
2019-11-15 08:00:00 1.8 18 Oeste 33 Oeste 0 -- -- 90
2019-11-15 07:00:00 2.2 19 Oeste 32 Oeste 0 -- -- 89
2019-11-15 06:00:00 2.7 23 Oeste 32 Oeste 0 -- -- 89
2019-11-15 05:00:00 2.9 20 Oeste 33 Oeste 0 -- -- 88
2019-11-15 04:00:00 3.4 19 Oeste 31 Oeste 0 -- -- 88
2019-11-15 03:00:00 3.5 17 Oeste 36 Oeste 0 -- -- 89
2019-11-15 02:00:00 4 21 Oeste 41 Oeste 0 -- -- 87
2019-11-15 01:00:00 4.4 24 Oeste 43 Oeste 0 -- -- 85
2019-11-15 00:00:00 4.8 22 Oeste 48 Oeste 0 -- -- 84
2019-11-14 23:00:00 5 26 Oeste 44 Oeste 0 -- -- 83
2019-11-14 22:00:00 5 28 Oeste 41 Oeste 0 -- -- 83
2019-11-14 21:00:00 4.9 28 Oeste 45 Oeste 0 -- -- 81
2019-11-14 20:00:00 4.9 30 Oeste 48 Oeste 0 -- -- 79
2019-11-14 19:00:00 5.2 24 Oeste 48 Oeste 0 -- -- 78
2019-11-14 18:00:00 5.8 29 Oeste 49 Noroeste 0 -- -- 75
2019-11-14 17:00:00 5.8 29 Oeste 54 Oeste 0 -- -- 81
2019-11-14 16:00:00 6.6 26 Noroeste 55 Oeste 0 -- -- 75
2019-11-14 15:00:00 6.9 24 Noroeste 46 Noroeste 0 -- -- 85
2019-11-14 14:00:00 5.1 19 Oeste 35 Oeste 1 -- -- 95
2019-11-14 13:00:00 3.2 10 Noroeste 18 Oeste 3.2 -- -- 98
2019-11-14 12:00:00 2.7 12 Norte 48 Oeste 3.4 -- -- 93
2019-11-14 11:00:00 5.8 29 Sudoeste 51 Sudoeste 1.2 -- -- 97
2019-11-14 10:00:00 5.7 30 Sudoeste 52 Sudoeste 1.4 -- -- 96
2019-11-14 09:00:00 6 33 Sudoeste 45 Sudoeste 0 -- -- 91
2019-11-14 08:00:00 6.2 27 Sudoeste 41 Oeste 0 -- -- 87
2019-11-14 07:00:00 6 17 Oeste 32 Sudoeste 0 -- -- 89
2019-11-14 06:00:00 7.2 25 Oeste 39 Sudoeste 0 -- -- 90
2019-11-14 05:00:00 7.5 22 Sudoeste 37 Sudoeste 0 -- -- 92
2019-11-14 04:00:00 7.4 25 Sudoeste 39 Oeste 0 -- -- 93
2019-11-14 03:00:00 7.8 24 Sudoeste 34 Sudoeste 0 -- -- 93
2019-11-14 02:00:00 8.5 23 Sudoeste 32 Sudoeste 0 -- -- 95
2019-11-14 01:00:00 8.9 21 Sudoeste 30 Sudoeste 0 -- -- 95
2019-11-14 00:00:00 9.8 17 Sudoeste 26 Sudoeste 0 -- -- 93
2019-11-13 23:00:00 9.8 16 Sudoeste 24 Sudoeste 0 -- -- 93
2019-11-13 22:00:00 10.5 13 Sudoeste 24 Sudoeste 0 -- -- 92
2019-11-13 21:00:00 10.4 18 Sudoeste 24 Sudoeste 0 -- -- 92
2019-11-13 20:00:00 10.1 14 Oeste 27 Sudoeste 0 -- -- 90
2019-11-13 19:00:00 11.1 16 Sudoeste 24 Oeste 0 -- -- 86
2019-11-13 18:00:00 13 17 Oeste 30 Oeste 0 -- -- 72
2019-11-13 17:00:00 14.3 21 Oeste 37 Oeste 0 -- -- 70
2019-11-13 16:00:00 14.7 24 Oeste 44 Oeste 0 -- -- 69
2019-11-13 15:00:00 14.1 26 Oeste 39 Oeste 0 -- -- 74
2019-11-13 14:00:00 13.6 24 Oeste 48 Oeste 0 -- -- 78
2019-11-13 13:00:00 -- -- -- -- -- -- -- -- --
2019-11-13 12:00:00 -- -- -- -- -- -- -- -- --
2019-11-13 11:00:00 -- -- -- -- -- -- -- -- --
2019-11-13 10:00:00 -- -- -- -- -- -- -- -- --
2019-11-13 09:00:00 -- -- -- -- -- -- -- -- --
2019-11-13 08:00:00 -- -- -- -- -- -- -- -- --
2019-11-13 07:00:00 -- -- -- -- -- -- -- -- --
2019-11-13 06:00:00 -- -- -- -- -- -- -- -- --
2019-11-13 05:00:00 -- -- -- -- -- -- -- -- --
2019-11-13 04:00:00 -- -- -- -- -- -- -- -- --
2019-11-13 03:00:00 -- -- -- -- -- -- -- -- --
2019-11-13 02:00:00 -- -- -- -- -- -- -- -- --
2019-11-13 01:00:00 -- -- -- -- -- -- -- -- --
2019-11-13 00:00:00 -- -- -- -- -- -- -- -- --
2019-11-12 23:00:00 -- -- -- -- -- -- -- -- --
2019-11-12 22:00:00 -- -- -- -- -- -- -- -- --
2019-11-12 21:00:00 -- -- -- -- -- -- -- -- --
2019-11-12 20:00:00 -- -- -- -- -- -- -- -- --
2019-11-12 19:00:00 -- -- -- -- -- -- -- -- --
2019-11-12 18:00:00 -- -- -- -- -- -- -- -- --
2019-11-12 17:00:00 -- -- -- -- -- -- -- -- --
2019-11-12 16:00:00 -- -- -- -- -- -- -- -- --
2019-11-12 15:00:00 -- -- -- -- -- -- -- -- --
2019-11-12 14:00:00 -- -- -- -- -- -- -- -- --
2019-11-12 13:00:00 -- -- -- -- -- -- -- -- --
2019-11-12 12:00:00 -- -- -- -- -- -- -- -- --
2019-11-12 11:00:00 -- -- -- -- -- -- -- -- --
2019-11-12 10:00:00 -- -- -- -- -- -- -- -- --
2019-11-12 09:00:00 -- -- -- -- -- -- -- -- --
2019-11-12 08:00:00 -- -- -- -- -- -- -- -- --
2019-11-12 07:00:00 -- -- -- -- -- -- -- -- --
2019-11-12 06:00:00 -- -- -- -- -- -- -- -- --
2019-11-12 05:00:00 -- -- -- -- -- -- -- -- --
2019-11-12 04:00:00 -- -- -- -- -- -- -- -- --
2019-11-12 03:00:00 -- -- -- -- -- -- -- -- --
2019-11-12 02:00:00 -- -- -- -- -- -- -- -- --
2019-11-12 01:00:00 -- -- -- -- -- -- -- -- --
2019-11-12 00:00:00 -- -- -- -- -- -- -- -- --
2019-11-11 23:00:00 -- -- -- -- -- -- -- -- --
2019-11-11 22:00:00 -- -- -- -- -- -- -- -- --
2019-11-11 21:00:00 -- -- -- -- -- -- -- -- --
2019-11-11 20:00:00 -- -- -- -- -- -- -- -- --
2019-11-11 19:00:00 -- -- -- -- -- -- -- -- --
2019-11-11 18:00:00 -- -- -- -- -- -- -- -- --
2019-11-11 17:00:00 -- -- -- -- -- -- -- -- --
2019-11-11 16:00:00 -- -- -- -- -- -- -- -- --
2019-11-11 15:00:00 -- -- -- -- -- -- -- -- --
2019-11-11 14:00:00 -- -- -- -- -- -- -- -- --
2019-11-11 13:00:00 -- -- -- -- -- -- -- -- --
2019-11-11 12:00:00 -- -- -- -- -- -- -- -- --
2019-11-11 11:00:00 -- -- -- -- -- -- -- -- --
2019-11-11 10:00:00 -- -- -- -- -- -- -- -- --
2019-11-11 09:00:00 -- -- -- -- -- -- -- -- --
2019-11-11 08:00:00 -- -- -- -- -- -- -- -- --
2019-11-11 07:00:00 -- -- -- -- -- -- -- -- --
2019-11-11 06:00:00 -- -- -- -- -- -- -- -- --
2019-11-11 05:00:00 -- -- -- -- -- -- -- -- --
2019-11-11 04:00:00 -- -- -- -- -- -- -- -- --
2019-11-11 03:00:00 -- -- -- -- -- -- -- -- --
2019-11-11 02:00:00 -- -- -- -- -- -- -- -- --
2019-11-11 01:00:00 -- -- -- -- -- -- -- -- --
2019-11-11 00:00:00 -- -- -- -- -- -- -- -- --
2019-11-10 23:00:00 -- -- -- -- -- -- -- -- --
2019-11-10 22:00:00 -- -- -- -- -- -- -- -- --
2019-11-10 21:00:00 -- -- -- -- -- -- -- -- --
2019-11-10 20:00:00 -- -- -- -- -- -- -- -- --
2019-11-10 19:00:00 -- -- -- -- -- -- -- -- --
2019-11-10 18:00:00 -- -- -- -- -- -- -- -- --
2019-11-10 17:00:00 -- -- -- -- -- -- -- -- --
2019-11-10 16:00:00 -- -- -- -- -- -- -- -- --
2019-11-10 15:00:00 -- -- -- -- -- -- -- -- --
2019-11-10 14:00:00 -- -- -- -- -- -- -- -- --
2019-11-10 13:00:00 -- -- -- -- -- -- -- -- --
2019-11-10 12:00:00 -- -- -- -- -- -- -- -- --
2019-11-10 11:00:00 -- -- -- -- -- -- -- -- --
2019-11-10 10:00:00 -- -- -- -- -- -- -- -- --
2019-11-10 09:00:00 -- -- -- -- -- -- -- -- --
2019-11-10 08:00:00 -- -- -- -- -- -- -- -- --
2019-11-10 07:00:00 -- -- -- -- -- -- -- -- --
2019-11-10 06:00:00 -- -- -- -- -- -- -- -- --
2019-11-10 05:00:00 -- -- -- -- -- -- -- -- --
2019-11-10 04:00:00 -- -- -- -- -- -- -- -- --
2019-11-10 03:00:00 -- -- -- -- -- -- -- -- --
2019-11-10 02:00:00 -- -- -- -- -- -- -- -- --
2019-11-10 01:00:00 -- -- -- -- -- -- -- -- --
2019-11-10 00:00:00 -- -- -- -- -- -- -- -- --
2019-11-09 23:00:00 -- -- -- -- -- -- -- -- --
2019-11-09 22:00:00 -- -- -- -- -- -- -- -- --
2019-11-09 21:00:00 -- -- -- -- -- -- -- -- --
2019-11-09 20:00:00 -- -- -- -- -- -- -- -- --
2019-11-09 19:00:00 -- -- -- -- -- -- -- -- --
2019-11-09 18:00:00 -- -- -- -- -- -- -- -- --
2019-11-09 17:00:00 -- -- -- -- -- -- -- -- --
2019-11-09 16:00:00 -- -- -- -- -- -- -- -- --
2019-11-09 15:00:00 -- -- -- -- -- -- -- -- --
2019-11-09 14:00:00 -- -- -- -- -- -- -- -- --
2019-11-09 13:00:00 -- -- -- -- -- -- -- -- --
2019-11-09 12:00:00 -- -- -- -- -- -- -- -- --
2019-11-09 11:00:00 -- -- -- -- -- -- -- -- --
2019-11-09 10:00:00 -- -- -- -- -- -- -- -- --
2019-11-09 09:00:00 -- -- -- -- -- -- -- -- --
2019-11-09 08:00:00 -- -- -- -- -- -- -- -- --
2019-11-09 07:00:00 -- -- -- -- -- -- -- -- --
2019-11-09 06:00:00 -- -- -- -- -- -- -- -- --
2019-11-09 05:00:00 -- -- -- -- -- -- -- -- --
2019-11-09 04:00:00 -- -- -- -- -- -- -- -- --
2019-11-09 03:00:00 -- -- -- -- -- -- -- -- --
2019-11-09 02:00:00 -- -- -- -- -- -- -- -- --
2019-11-09 01:00:00 -- -- -- -- -- -- -- -- --
2019-11-09 00:00:00 -- -- -- -- -- -- -- -- --
2019-11-08 23:00:00 -- -- -- -- -- -- -- -- --
2019-11-08 22:00:00 -- -- -- -- -- -- -- -- --
2019-11-08 21:00:00 5.2 8 Noroeste 19 Oeste 0 -- -- 69
2019-11-08 20:00:00 6.1 13 Oeste 23 Noroeste 0 -- -- 66
2019-11-08 19:00:00 6.9 12 Oeste 27 Oeste 0 -- -- 62
2019-11-08 18:00:00 8.7 12 Oeste 29 Oeste 0 -- -- 54
2019-11-08 17:00:00 9.7 18 Noroeste 32 Oeste 0 -- -- 50
2019-11-08 16:00:00 9.9 17 Noroeste 40 Oeste 0 -- -- 48
2019-11-08 15:00:00 9.5 18 Oeste 33 Noroeste 0 -- -- 52
2019-11-08 14:00:00 9 18 Noroeste 31 Noroeste 0 -- -- 56
2019-11-08 13:00:00 7.9 17 Noroeste 32 Oeste 0 -- -- 57
2019-11-08 12:00:00 6.6 17 Oeste 30 Oeste 0 -- -- 70
2019-11-08 11:00:00 4.8 14 Noroeste 26 Oeste 0 -- -- 80
2019-11-08 10:00:00 4 14 Noroeste 27 Oeste 0 -- -- 91
2019-11-08 09:00:00 2.9 9 Noroeste 19 Oeste 0 -- -- 95
2019-11-08 08:00:00 2.6 12 Noroeste 26 Noroeste 0 -- -- 93
2019-11-08 07:00:00 3.4 16 Noroeste 32 Oeste 0 -- -- 91
2019-11-08 06:00:00 3.6 14 Noroeste 27 Noroeste 0 -- -- 89
2019-11-08 05:00:00 3.6 15 Noroeste 30 Noroeste 0 -- -- 87
2019-11-08 04:00:00 3.8 14 Oeste 27 Noroeste 0 -- -- 86
2019-11-08 03:00:00 4 16 Oeste 32 Oeste 0 -- -- 83
2019-11-08 02:00:00 4.3 17 Oeste 32 Oeste 0 -- -- 83
2019-11-08 01:00:00 5.5 17 Oeste 29 Oeste 0 -- -- 79
2019-11-08 00:00:00 6.4 18 Oeste 36 Oeste 0 -- -- 75
2019-11-07 23:00:00 5.8 19 Oeste 27 Oeste 0 -- -- 75
2019-11-07 22:00:00 5.3 14 Oeste 22 Oeste 0 -- -- 75
2019-11-07 21:00:00 6.1 13 Oeste 28 Oeste 0 -- -- 71
2019-11-07 20:00:00 7.6 13 Noroeste 37 Noroeste 0 -- -- 61
2019-11-07 19:00:00 8.4 17 Oeste 30 Oeste 0 -- -- 62
2019-11-07 18:00:00 10.4 16 Oeste 32 Oeste 0 -- -- 61
2019-11-07 17:00:00 11.5 20 Oeste 37 Oeste 0 -- -- 63
2019-11-07 16:00:00 12.7 22 Oeste 40 Oeste 0 -- -- 62
2019-11-07 15:00:00 12.8 26 Oeste 45 Oeste 0 -- -- 75
2019-11-07 14:00:00 12.4 24 Oeste 40 Oeste 0 -- -- 87
2019-11-07 13:00:00 10.6 19 Oeste 30 Sudoeste 0.6 -- -- 99
2019-11-07 12:00:00 9.3 21 Sudoeste 33 Sudoeste 0 -- -- 98
2019-11-07 11:00:00 8.7 22 Sudoeste 34 Sudoeste 0.2 -- -- 98
2019-11-07 10:00:00 7.9 20 Sudoeste 29 Sudoeste 0 -- -- 98
2019-11-07 09:00:00 7.1 18 Sudoeste 27 Sudoeste 0.2 -- -- 97
2019-11-07 08:00:00 6.7 14 Sudoeste 22 Sudoeste 0.6 -- -- 96
2019-11-07 07:00:00 6.4 12 Sudoeste 23 Sur 0.2 -- -- 94
2019-11-07 06:00:00 6.3 11 Sudoeste 23 Sur 0 -- -- 91
2019-11-07 05:00:00 6.2 10 Sudoeste 20 Sudoeste 0 -- -- 89
2019-11-07 04:00:00 5.9 8 Sudoeste 14 Sudoeste 0 -- -- 89
2019-11-07 03:00:00 4.8 8 Sudoeste 13 Sudoeste 0 -- -- 90
2019-11-07 02:00:00 4.5 9 Sudoeste 12 Sudoeste 0 -- -- 88
2019-11-07 01:00:00 4.9 6 Sudoeste 15 Sudoeste 0 -- -- 86
2019-11-07 00:00:00 5.3 12 Sudoeste 17 Sudoeste 0 -- -- 85
2019-11-06 23:00:00 5.1 9 Sur 13 Oeste 0 -- -- 85
2019-11-06 22:00:00 6.4 10 Oeste 16 Sudoeste 0 -- -- 80
2019-11-06 21:00:00 6.4 8 Sudoeste 14 Sudoeste 0 -- -- 82
2019-11-06 20:00:00 7.4 11 Sudoeste 15 Sudoeste 0 -- -- 84
2019-11-06 19:00:00 8 7 Sudoeste 17 Oeste 0 -- -- 75
2019-11-06 18:00:00 9.5 10 Oeste 20 Oeste 0 -- -- 66
2019-11-06 17:00:00 10.7 12 Sudoeste 22 Sudoeste 0 -- -- 71
2019-11-06 16:00:00 10.5 6 Noroeste 13 Sudoeste 0 -- -- 69
2019-11-06 15:00:00 9.8 10 Sudoeste 21 Sudoeste 0 -- -- 78
2019-11-06 14:00:00 11.6 9 Oeste 18 Sudoeste 0 -- -- 66
2019-11-06 13:00:00 9.9 9 Sudoeste 15 Sudoeste 0 -- -- 74
2019-11-06 12:00:00 8.1 5 Oeste 11 Sudoeste 0 -- -- 86
2019-11-06 11:00:00 6.6 5 Oeste 9 Oeste 0 -- -- 96
2019-11-06 10:00:00 5.8 5 Sudoeste 9 Sudoeste 0 -- -- 97
2019-11-06 09:00:00 4.6 4 Sudoeste 5 Sudoeste 0 -- -- 97
2019-11-06 08:00:00 3.7 3 Sudoeste 8 Sur 0 -- -- 96
2019-11-06 07:00:00 4.2 5 Sur 9 Noroeste 0 -- -- 94
2019-11-06 06:00:00 4.9 7 Oeste 13 Noroeste 0 -- -- 95
2019-11-06 05:00:00 5.1 8 Oeste 14 Oeste 0 -- -- 93
2019-11-06 04:00:00 5.3 10 Oeste 16 Oeste 0 -- -- 92
2019-11-06 03:00:00 5.3 8 Oeste 15 Oeste 0 -- -- 91
2019-11-06 02:00:00 5.7 10 Oeste 17 Oeste 0 -- -- 90
2019-11-06 01:00:00 6.1 8 Oeste 18 Oeste 0 -- -- 88
2019-11-06 00:00:00 6.7 11 Oeste 19 Oeste 0 -- -- 86
2019-11-05 23:00:00 6.8 9 Oeste 21 Oeste 0 -- -- 83
2019-11-05 22:00:00 7.2 10 Oeste 18 Oeste 0 -- -- 82
2019-11-05 21:00:00 7.9 10 Oeste 20 Oeste 0 -- -- 78
2019-11-05 20:00:00 8.5 12 Oeste 25 Noroeste 0 -- -- 78
2019-11-05 19:00:00 9.5 15 Oeste 31 Oeste 0 -- -- 75
2019-11-05 18:00:00 10.4 17 Oeste 40 Noroeste 0 -- -- 71
2019-11-05 17:00:00 10.7 22 Oeste 47 Oeste 0 -- -- 71
2019-11-05 16:00:00 11.2 22 Noroeste 45 Oeste 0 -- -- 69
2019-11-05 15:00:00 10.3 26 Noroeste 44 Noroeste 0 -- -- 72
2019-11-05 14:00:00 10.1 23 Oeste 41 Oeste 0 -- -- 74
2019-11-05 13:00:00 9.6 19 Oeste 36 Noroeste 0 -- -- 77
2019-11-05 12:00:00 8.8 23 Oeste 41 Oeste 0 -- -- 79
2019-11-05 11:00:00 8 19 Noroeste 39 Oeste 0 -- -- 85
2019-11-05 10:00:00 7 22 Oeste 49 Oeste 0 -- -- 90
2019-11-05 09:00:00 6.6 22 Oeste 38 Noroeste 0 -- -- 92
2019-11-05 08:00:00 6.6 18 Oeste 46 Oeste 0 -- -- 91
2019-11-05 07:00:00 7.1 22 Oeste 36 Oeste 0 -- -- 94
2019-11-05 06:00:00 7.2 19 Oeste 34 Oeste 0 -- -- 94
2019-11-05 05:00:00 7.9 18 Oeste 33 Oeste 0.2 -- -- 95
2019-11-05 04:00:00 8.1 20 Noroeste 40 Noroeste 0 -- -- 95
2019-11-05 03:00:00 8.6 22 Oeste 48 Noroeste 0.4 -- -- 95
2019-11-05 02:00:00 9.5 25 Oeste 43 Oeste 0.2 -- -- 95
2019-11-05 01:00:00 9.8 26 Oeste 48 Oeste 0.4 -- -- 95
2019-11-05 00:00:00 11 29 Oeste 60 Sudoeste 1.8 -- -- 94
2019-11-04 23:00:00 11.5 36 Sudoeste 55 Sudoeste 0 -- -- 90
2019-11-04 22:00:00 11.1 31 Sudoeste 48 Sudoeste 0 -- -- 90
2019-11-04 21:00:00 11.2 31 Sudoeste 42 Sudoeste 0 -- -- 87
2019-11-04 20:00:00 11.9 26 Sudoeste 40 Sudoeste 0 -- -- 85
2019-11-04 19:00:00 12.5 20 Sudoeste 45 Oeste 0 -- -- 82
2019-11-04 18:00:00 13 24 Oeste 39 Oeste 0 -- -- 67
2019-11-04 17:00:00 13.6 28 Oeste 46 Oeste 0 -- -- 76
2019-11-04 16:00:00 13.8 25 Oeste 49 Oeste 0 -- -- 77
2019-11-04 15:00:00 13.8 30 Oeste 47 Oeste 0 -- -- 77
2019-11-04 14:00:00 13.5 27 Oeste 39 Oeste 0 -- -- 88
2019-11-04 13:00:00 12.4 24 Oeste 39 Oeste 0 -- -- 91
2019-11-04 12:00:00 12.8 25 Oeste 43 Oeste 0 -- -- 90
2019-11-04 11:00:00 12.1 25 Oeste 41 Oeste 0.2 -- -- 93
2019-11-04 10:00:00 11.9 21 Oeste 31 Oeste 0 -- -- 92
2019-11-04 09:00:00 11.2 21 Oeste 32 Oeste 0.4 -- -- 97
2019-11-04 08:00:00 11.3 17 Sudoeste 25 Oeste 0 -- -- 97
2019-11-04 07:00:00 11.3 16 Oeste 31 Oeste 0.4 -- -- 96
2019-11-04 06:00:00 11.5 21 Oeste 35 Oeste 0 -- -- 93
2019-11-04 05:00:00 11.4 21 Sudoeste 33 Oeste 0 -- -- 91
2019-11-04 04:00:00 11.3 18 Oeste 26 Oeste 0 -- -- 90
2019-11-04 03:00:00 11.2 19 Oeste 30 Oeste 0 -- -- 88
2019-11-04 02:00:00 11 20 Oeste 28 Sudoeste 0 -- -- 87
2019-11-04 01:00:00 11 21 Oeste 36 Oeste 0 -- -- 87
2019-11-04 00:00:00 9.8 16 Sudoeste 30 Sudoeste 0 -- -- 85
2019-11-03 23:00:00 10.4 16 Sudoeste 26 Sudoeste 0 -- -- 82
2019-11-03 22:00:00 10.4 12 Sudoeste 26 Oeste 0 -- -- 80
2019-11-03 21:00:00 10.9 16 Oeste 29 Oeste 0 -- -- 77
2019-11-03 20:00:00 11.6 18 Oeste 35 Oeste 0 -- -- 75
2019-11-03 19:00:00 12.2 16 Oeste 37 Noroeste 0 -- -- 72
2019-11-03 18:00:00 13.7 18 Noroeste 53 Oeste 0 -- -- 71
2019-11-03 17:00:00 14.5 24 Oeste 43 Noroeste 0 -- -- 68
2019-11-03 16:00:00 14.5 21 Oeste 52 Oeste 0 -- -- 72
2019-11-03 15:00:00 14.3 25 Oeste 51 Oeste 0 -- -- 76
2019-11-03 14:00:00 14.1 29 Oeste 56 Oeste 0 -- -- 83
2019-11-03 13:00:00 13.4 24 Oeste 54 Oeste 0 -- -- 87
2019-11-03 12:00:00 12.8 34 Oeste 54 Oeste 0 -- -- 93
2019-11-03 11:00:00 11.8 33 Oeste 49 Oeste 0.4 -- -- 95
2019-11-03 10:00:00 11.4 30 Oeste 46 Oeste 0.6 -- -- 96
2019-11-03 09:00:00 10.8 26 Sudoeste 40 Sudoeste 1.2 -- -- 96
2019-11-03 08:00:00 10.5 24 Oeste 40 Oeste 0.6 -- -- 95
2019-11-03 07:00:00 11.4 28 Oeste 49 Oeste 0 -- -- 84
2019-11-03 06:00:00 11.6 30 Oeste 46 Oeste 0 -- -- 80
2019-11-03 05:00:00 11.7 28 Oeste 51 Oeste 0 -- -- 80
2019-11-03 04:00:00 11.7 32 Oeste 57 Oeste 0 -- -- 75
2019-11-03 03:00:00 12.2 34 Oeste 49 Oeste 0 -- -- 76
2019-11-03 02:00:00 12.3 33 Oeste 59 Oeste 0 -- -- 79
2019-11-03 01:00:00 12.9 33 Oeste 49 Oeste 0 -- -- 83
2019-11-03 00:00:00 13.3 28 Oeste 47 Oeste 0 -- -- 84
2019-11-02 23:00:00 13.7 29 Oeste 48 Oeste 0 -- -- 83
2019-11-02 22:00:00 14.3 26 Oeste 40 Oeste 0 -- -- 83
2019-11-02 21:00:00 14.4 19 Oeste 41 Sudoeste 0 -- -- 84
2019-11-02 20:00:00 14.6 24 Oeste 39 Oeste 0 -- -- 84
2019-11-02 19:00:00 14.7 22 Sudoeste 36 Sudoeste 0 -- -- 82
2019-11-02 18:00:00 16 27 Sudoeste 42 Oeste 0 -- -- 75
2019-11-02 17:00:00 17.3 26 Oeste 43 Noroeste 0 -- -- 59
2019-11-02 16:00:00 17.8 21 Oeste 47 Oeste 0 -- -- 60
2019-11-02 15:00:00 18.2 28 Oeste 54 Oeste 0 -- -- 59
2019-11-02 14:00:00 17.7 23 Oeste 42 Noroeste 0 -- -- 62
2019-11-02 13:00:00 16.8 24 Oeste 42 Oeste 0 -- -- 64
2019-11-02 12:00:00 15.9 30 Oeste 47 Oeste 0 -- -- 75
2019-11-02 11:00:00 15 27 Oeste 41 Oeste 0 -- -- 82
2019-11-02 10:00:00 13.8 19 Oeste 36 Oeste 0 -- -- 92
2019-11-02 09:00:00 13.2 18 Oeste 31 Oeste 0 -- -- 94
2019-11-02 08:00:00 13 16 Oeste 31 Oeste 0 -- -- 92
2019-11-02 07:00:00 12.9 20 Oeste 28 Oeste 0 -- -- 92
2019-11-02 06:00:00 13.2 13 Oeste 32 Oeste 0 -- -- 91
2019-11-02 05:00:00 13.5 18 Oeste 28 Oeste 0 -- -- 90
2019-11-02 04:00:00 13.7 17 Oeste 34 Oeste 0 -- -- 89
2019-11-02 03:00:00 14 19 Oeste 30 Oeste 0 -- -- 88
2019-11-02 02:00:00 14 19 Oeste 36 Oeste 0 -- -- 89
2019-11-02 01:00:00 14.2 24 Oeste 39 Oeste 0 -- -- 88
2019-11-02 00:00:00 14.7 27 Oeste 39 Oeste 0 -- -- 86
2019-11-01 23:00:00 15 20 Oeste 33 Oeste 0 -- -- 85
2019-11-01 22:00:00 15.3 19 Oeste 44 Oeste 0 -- -- 83
2019-11-01 21:00:00 15.7 18 Oeste 35 Oeste 0 -- -- 83
2019-11-01 20:00:00 16 19 Oeste 36 Oeste 0 -- -- 82
2019-11-01 19:00:00 16.4 15 Oeste 30 Oeste 0 -- -- 82
2019-11-01 18:00:00 17.3 17 Oeste 33 Oeste 0 -- -- 81
2019-11-01 17:00:00 17.6 16 Oeste 34 Oeste 0.8 -- -- 84
2019-11-01 16:00:00 17.4 17 Noroeste 28 Noroeste 0.4 -- -- 80
2019-11-01 15:00:00 18 19 Oeste 31 Oeste 0 -- -- 74
2019-11-01 14:00:00 17.9 19 Oeste 34 Oeste 0 -- -- 74
2019-11-01 13:00:00 17.3 20 Oeste 35 Oeste 0 -- -- 76
2019-11-01 12:00:00 16.7 17 Oeste 31 Oeste 0 -- -- 80
2019-11-01 11:00:00 16.2 17 Oeste 29 Oeste 0 -- -- 83
2019-11-01 10:00:00 15.4 17 Oeste 26 Oeste -- -- -- 88
2019-11-01 09:00:00 14.8 14 Oeste 22 Oeste 0 -- -- 92
2019-11-01 08:00:00 14.6 13 Oeste -- -- -- -- -- 94
2019-11-01 07:00:00 -- -- -- -- -- -- -- -- --
2019-11-01 06:00:00 -- -- -- -- -- -- -- -- --
2019-11-01 05:00:00 15 -- -- 19 Nordeste 0 -- -- 92
2019-11-01 04:00:00 15.1 -- -- 24 Nordeste 0 -- -- 92
2019-11-01 03:00:00 15.1 -- -- 26 Nordeste 0 -- -- 90
2019-11-01 02:00:00 15.3 -- -- 17 Nordeste 0 -- -- 88
2019-11-01 01:00:00 15 -- -- 17 Nordeste 0 -- -- 84
2019-11-01 00:00:00 14.7 -- -- 14 Nordeste 0 -- -- 81
2019-10-31 23:00:00 15.4 -- -- 14 Nordeste 0 -- -- 78
2019-10-31 22:00:00 16.2 -- -- 19 Nordeste 0 -- -- 76
2019-10-31 21:00:00 16.6 -- -- 21 Nordeste 0 -- -- 76
2019-10-31 20:00:00 17 -- -- 19 Nordeste 0 -- -- 73
2019-10-31 19:00:00 17.7 -- -- 18 Nordeste 0 -- -- 68
2019-10-31 18:00:00 18.3 -- -- 21 Nordeste 0 -- -- 65
2019-10-31 17:00:00 18.9 -- -- 24 Nordeste 0 -- -- 64
2019-10-31 16:00:00 19.3 -- -- 27 Este 0 -- -- 63
2019-10-31 15:00:00 19.4 -- -- 29 Este 0 -- -- 63
2019-10-31 14:00:00 18.8 -- -- 23 Nordeste 0 -- -- 65
2019-10-31 13:00:00 19 -- -- 30 Nordeste 0 -- -- 66
2019-10-31 12:00:00 17.2 -- -- 22 Nordeste 0 -- -- 75
2019-10-31 11:00:00 15.8 -- -- 23 Nordeste 0 -- -- 85
2019-10-31 10:00:00 15.3 -- -- -- -- -- -- -- 88
2019-10-31 09:00:00 -- -- -- -- -- -- -- -- --
2019-10-31 08:00:00 -- -- -- -- -- -- -- -- --
2019-10-31 07:00:00 -- -- -- -- -- -- -- -- --
2019-10-31 06:00:00 -- -- -- -- -- -- -- -- --
2019-10-31 05:00:00 14.6 8 Noroeste 17 Noroeste 0 -- -- 85
2019-10-31 04:00:00 14.8 12 Noroeste 21 Oeste 0 -- -- 82
2019-10-31 03:00:00 15 8 Oeste 16 Oeste 0 -- -- 78
2019-10-31 02:00:00 15 6 Oeste 13 Oeste 0 -- -- 76
2019-10-31 01:00:00 15.1 9 Oeste 13 Oeste 0 -- -- 76
2019-10-31 00:00:00 15.5 8 Oeste 12 Oeste 0 -- -- 73
2019-10-30 23:00:00 15.8 7 Oeste 14 Oeste 0 -- -- 70
2019-10-30 22:00:00 15.7 6 Oeste 10 Oeste 0 -- -- 65
2019-10-30 21:00:00 16 7 Oeste 13 Oeste 0 -- -- 62
2019-10-30 20:00:00 16.3 5 Oeste 8 Oeste 0 -- -- 60
2019-10-30 19:00:00 17.1 4 Noroeste 13 Noroeste 0 -- -- 57
2019-10-30 18:00:00 18.3 7 Noroeste 18 Oeste 0 -- -- 54
2019-10-30 17:00:00 18.9 9 Noroeste 20 Norte 0 -- -- 51
2019-10-30 16:00:00 20 10 Noroeste 16 Oeste 0 -- -- 53
2019-10-30 15:00:00 18.9 9 Noroeste 17 Noroeste 0 -- -- 55
2019-10-30 14:00:00 19 8 Noroeste 15 Norte 0 -- -- 58
2019-10-30 13:00:00 19 8 Noroeste 17 Oeste 0 -- -- 59
2019-10-30 12:00:00 17 8 Noroeste 15 Noroeste 0 -- -- 68
2019-10-30 11:00:00 15 5 Noroeste 11 Noroeste 0 -- -- 82
2019-10-30 10:00:00 13.4 4 Noroeste 6 Oeste 0 -- -- 89
2019-10-30 09:00:00 11.9 3 Sudoeste 5 Sudoeste 0 -- -- 91
2019-10-30 08:00:00 11.7 4 Sudoeste 5 Sudoeste 0 -- -- 93
2019-10-30 07:00:00 11 4 Sur 7 Sur 0 -- -- 92
2019-10-30 06:00:00 11.2 4 Sur 7 Sur 0 -- -- 92
2019-10-30 05:00:00 11.4 6 Sur 8 Sudeste 0 -- -- 90
2019-10-30 04:00:00 11.6 5 Sur 6 Sur 0 -- -- 89
2019-10-30 03:00:00 11.6 3 Sudeste 8 Sudeste 0 -- -- 88
2019-10-30 02:00:00 12.1 4 Sudoeste 6 Sur 0 -- -- 88
2019-10-30 01:00:00 11.8 5 Sur 6 Sur 0 -- -- 87
2019-10-30 00:00:00 12 5 Sur 7 Sur 0 -- -- 86
2019-10-29 23:00:00 12.4 5 Sur 7 Oeste 0 -- -- 82
2019-10-29 22:00:00 13.3 6 Noroeste 18 Este 0 -- -- 81
2019-10-29 21:00:00 13.8 13 Este 15 Este 0 -- -- 79
2019-10-29 20:00:00 14 8 Nordeste 9 Nordeste 0 -- -- 74
2019-10-29 19:00:00 15.5 4 Nordeste 8 Norte 0 -- -- 70
2019-10-29 18:00:00 17.2 7 Nordeste 13 Norte 0 -- -- 63
2019-10-29 17:00:00 18.1 10 Nordeste 18 Noroeste 0 -- -- 62
2019-10-29 16:00:00 18.7 11 Norte 19 Noroeste 0 -- -- 58
2019-10-29 15:00:00 18.7 5 Norte 16 Norte 0 -- -- 59
2019-10-29 14:00:00 18.2 6 Oeste 16 Noroeste 0 -- -- 66
2019-10-29 13:00:00 17.1 8 Norte 14 Norte 0 -- -- 70
2019-10-29 12:00:00 16 6 Noroeste 14 Oeste 0 -- -- 75
2019-10-29 11:00:00 15.1 5 Sudoeste 11 Sudeste 0 -- -- 79
2019-10-29 10:00:00 12.9 4 Sur -- -- -- -- -- 84
2019-10-29 09:00:00 -- -- -- -- -- -- -- -- --
2019-10-29 08:00:00 -- -- -- -- -- -- -- -- --
2019-10-29 07:00:00 -- -- -- -- -- -- -- -- --
2019-10-29 06:00:00 -- -- -- -- -- -- -- -- --
2019-10-29 05:00:00 -- -- -- -- -- -- -- -- --
2019-10-29 04:00:00 -- -- -- -- -- -- -- -- --
2019-10-29 03:00:00 -- -- -- -- -- -- -- -- --
2019-10-29 02:00:00 -- -- -- -- -- -- -- -- --
2019-10-29 01:00:00 -- -- -- -- -- -- -- -- --
2019-10-29 00:00:00 -- -- -- -- -- -- -- -- --
2019-10-28 23:00:00 -- -- -- -- -- -- -- -- --
2019-10-28 22:00:00 -- -- -- -- -- -- -- -- --
2019-10-28 21:00:00 -- -- -- -- -- -- -- -- --
2019-10-28 20:00:00 -- -- -- -- -- -- -- -- --
2019-10-28 19:00:00 -- -- -- -- -- -- -- -- --
2019-10-28 18:00:00 -- -- -- -- -- -- -- -- --
2019-10-28 17:00:00 21.5 7 Noroeste 24 Sudoeste 0 -- -- 42
2019-10-28 16:00:00 22.5 5 Oeste 22 Noroeste 0 -- -- 38
2019-10-28 15:00:00 22 5 Noroeste 16 Oeste 0 -- -- 40
2019-10-28 14:00:00 -- -- -- -- -- -- -- -- --
2019-10-28 13:00:00 19.6 5 Oeste 11 Oeste 0 -- -- 45
2019-10-28 12:00:00 17.4 8 Sudoeste 16 Sur 0 -- -- 55
2019-10-28 11:00:00 15 5 Sudoeste 10 Sudoeste 0 -- -- 60
2019-10-28 10:00:00 13.6 6 Sur -- -- -- -- -- 68
2019-10-28 09:00:00 -- -- -- -- -- -- -- -- --
2019-10-28 08:00:00 -- -- -- -- -- -- -- -- --
2019-10-28 07:00:00 -- -- -- -- -- -- -- -- --
2019-10-28 06:00:00 -- -- -- -- -- -- -- -- --
2019-10-28 05:00:00 -- -- -- -- -- -- -- -- --
2019-10-28 04:00:00 -- -- -- -- -- -- -- -- --
2019-10-28 03:00:00 -- -- -- -- -- -- -- -- --
2019-10-28 02:00:00 -- -- -- -- -- -- -- -- --
2019-10-28 01:00:00 -- -- -- -- -- -- -- -- --
2019-10-28 00:00:00 -- -- -- -- -- -- -- -- --
2019-10-27 23:00:00 -- -- -- -- -- -- -- -- --
2019-10-27 22:00:00 -- -- -- -- -- -- -- -- --
2019-10-27 21:00:00 -- -- -- -- -- -- -- -- --
2019-10-27 20:00:00 -- -- -- -- -- -- -- -- --
2019-10-27 19:00:00 -- -- -- -- -- -- -- -- --
2019-10-27 18:00:00 -- -- -- -- -- -- -- -- --
2019-10-27 17:00:00 22.3 3 Norte 9 Noroeste 0 -- -- 34
2019-10-27 16:00:00 23.2 4 Norte 12 Noroeste 0 -- -- 33
2019-10-27 15:00:00 22.9 6 Norte 14 Norte 0 -- -- 35
2019-10-27 14:00:00 -- -- -- -- -- -- -- -- --
2019-10-27 13:00:00 -- -- -- -- -- -- -- -- --
2019-10-27 12:00:00 -- -- -- -- -- -- -- -- --
2019-10-27 11:00:00 -- -- -- -- -- -- -- -- --
2019-10-27 10:00:00 -- -- -- -- -- -- -- -- --
2019-10-27 09:00:00 12.9 6 Sur -- -- -- -- -- 55
2019-10-27 08:00:00 -- -- -- -- -- -- -- -- --
2019-10-27 07:00:00 -- -- -- -- -- -- -- -- --
2019-10-27 06:00:00 -- -- -- -- -- -- -- -- --
2019-10-27 05:00:00 -- -- -- -- -- -- -- -- --
2019-10-27 04:00:00 -- -- -- -- -- -- -- -- --
2019-10-27 03:00:00 -- -- -- -- -- -- -- -- --
2019-10-27 02:00:00 -- -- -- -- -- -- -- -- --
2019-10-27 01:00:00 -- -- -- -- -- -- -- -- --
2019-10-27 00:00:00 -- -- -- -- -- -- -- -- --
2019-10-26 23:00:00 -- -- -- -- -- -- -- -- --
2019-10-26 22:00:00 -- -- -- -- -- -- -- -- --
2019-10-26 21:00:00 -- -- -- -- -- -- -- -- --
2019-10-26 20:00:00 -- -- -- -- -- -- -- -- --
2019-10-26 19:00:00 -- -- -- -- -- -- -- -- --
2019-10-26 18:00:00 22.6 6 Norte 13 Noroeste 0 -- -- 35
2019-10-26 17:00:00 23.8 3 Nordeste 10 Oeste 0 -- -- 32
2019-10-26 16:00:00 23.8 6 Noroeste 15 Sur 0 -- -- 31
2019-10-26 15:00:00 23.6 7 Oeste 14 Sudoeste 0 -- -- 31
2019-10-26 14:00:00 22.2 8 Sudoeste 15 Sudoeste 0 -- -- 38
2019-10-26 13:00:00 20.6 6 Sudoeste 12 Oeste 0 -- -- 44
2019-10-26 12:00:00 17.5 3 Sudoeste 8 Sur 0 -- -- 60
2019-10-26 11:00:00 15.2 3 Sur 9 Sur 0 -- -- 67
2019-10-26 10:00:00 12.9 5 Sudeste -- -- -- -- -- 73
2019-10-26 09:00:00 -- -- -- -- -- -- -- -- --
2019-10-26 08:00:00 -- -- -- -- -- -- -- -- --
2019-10-26 07:00:00 -- -- -- -- -- -- -- -- --
2019-10-26 06:00:00 -- -- -- -- -- -- -- -- --
2019-10-26 05:00:00 -- -- -- -- -- -- -- -- --
2019-10-26 04:00:00 -- -- -- -- -- -- -- -- --
2019-10-26 03:00:00 -- -- -- -- -- -- -- -- --
2019-10-26 02:00:00 -- -- -- -- -- -- -- -- --
2019-10-26 01:00:00 -- -- -- -- -- -- -- -- --
2019-10-26 00:00:00 -- -- -- -- -- -- -- -- --
2019-10-25 23:00:00 -- -- -- -- -- -- -- -- --
2019-10-25 22:00:00 -- -- -- -- -- -- -- -- --
2019-10-25 21:00:00 -- -- -- -- -- -- -- -- --
2019-10-25 20:00:00 -- -- -- -- -- -- -- -- --
2019-10-25 19:00:00 -- -- -- -- -- -- -- -- --
2019-10-25 18:00:00 19.9 8 Norte 14 Noroeste 0 -- -- 53
2019-10-25 17:00:00 20.2 8 Norte 15 Norte 0 -- -- 54
2019-10-25 16:00:00 20.3 8 Norte 18 Norte 0 -- -- 54
2019-10-25 15:00:00 20.3 6 Noroeste 13 Noroeste 0 -- -- 52
2019-10-25 14:00:00 19 6 Norte 13 Nordeste 0 -- -- 53
2019-10-25 13:00:00 17.3 8 Nordeste 13 Este 0 -- -- 61
2019-10-25 12:00:00 14.9 7 Este 15 Este 0 -- -- 69
2019-10-25 11:00:00 12.6 13 Este 19 Este 0 -- -- 79
2019-10-25 10:00:00 9.8 17 Este -- -- -- -- -- 82
2019-10-25 09:00:00 -- -- -- -- -- -- -- -- --
2019-10-25 08:00:00 -- -- -- -- -- -- -- -- --
2019-10-25 07:00:00 -- -- -- -- -- -- -- -- --
2019-10-25 06:00:00 -- -- -- -- -- -- -- -- --
2019-10-25 05:00:00 -- -- -- -- -- -- -- -- --
2019-10-25 04:00:00 -- -- -- -- -- -- -- -- --
2019-10-25 03:00:00 -- -- -- -- -- -- -- -- --
2019-10-25 02:00:00 -- -- -- -- -- -- -- -- --
2019-10-25 01:00:00 -- -- -- -- -- -- -- -- --
2019-10-25 00:00:00 -- -- -- -- -- -- -- -- --
2019-10-24 23:00:00 -- -- -- -- -- -- -- -- --
2019-10-24 22:00:00 -- -- -- -- -- -- -- -- --
2019-10-24 21:00:00 -- -- -- -- -- -- -- -- --
2019-10-24 20:00:00 -- -- -- -- -- -- -- -- --
2019-10-24 19:00:00 -- -- -- -- -- -- -- -- --
2019-10-24 18:00:00 13.6 12 Oeste 21 Oeste 0 -- -- 64
2019-10-24 17:00:00 14 15 Oeste 27 Oeste 0 -- -- 66
2019-10-24 16:00:00 12.5 11 Noroeste 21 Oeste 0 -- -- 70
2019-10-24 15:00:00 12.5 9 Noroeste 17 Noroeste 0 -- -- 71
2019-10-24 14:00:00 10.7 10 Noroeste 18 Noroeste 0 -- -- 78
2019-10-24 13:00:00 10.3 11 Oeste 19 Noroeste 0 -- -- 82
2019-10-24 12:00:00 9.3 10 Noroeste 20 Noroeste 0 -- -- 86
2019-10-24 11:00:00 8.1 10 Oeste -- -- -- -- -- 95
2019-10-24 10:00:00 -- -- -- -- -- -- -- -- --
2019-10-24 09:00:00 -- -- -- -- -- -- -- -- --
2019-10-24 08:00:00 -- -- -- -- -- -- -- -- --
2019-10-24 07:00:00 -- -- -- -- -- -- -- -- --
2019-10-24 06:00:00 -- -- -- -- -- -- -- -- --
2019-10-24 05:00:00 -- -- -- -- -- -- -- -- --
2019-10-24 04:00:00 -- -- -- -- -- -- -- -- --
2019-10-24 03:00:00 -- -- -- -- -- -- -- -- --
2019-10-24 02:00:00 7.7 17 Oeste 27 Oeste 0.2 -- -- 97
2019-10-24 01:00:00 7.7 15 Oeste 22 Oeste 0 -- -- 97
2019-10-24 00:00:00 7.5 12 Oeste 19 Oeste 0 -- -- 97
2019-10-23 23:00:00 7.3 12 Oeste 22 Oeste 0 -- -- 96
2019-10-23 22:00:00 7.1 13 Oeste 23 Sudoeste 0 -- -- 96
2019-10-23 21:00:00 7 17 Oeste 26 Oeste 0.2 -- -- 96
2019-10-23 20:00:00 6.9 14 Sudoeste 24 Sudoeste 0.2 -- -- 94
2019-10-23 19:00:00 7 14 Sudoeste 33 Oeste 0.6 -- -- 91
2019-10-23 18:00:00 7.2 23 Oeste 36 Oeste 1.2 -- -- 90
2019-10-23 17:00:00 7.3 17 Oeste 36 Sudoeste 0.6 -- -- 92
2019-10-23 16:00:00 7.1 22 Oeste 42 Oeste 0.8 -- -- 93
2019-10-23 15:00:00 7.1 23 Oeste 44 Oeste 0.6 -- -- 93
2019-10-23 14:00:00 6.9 26 Sudoeste 40 Sudoeste 0.8 -- -- 95
2019-10-23 13:00:00 6.7 21 Sudoeste 34 Sudoeste 1.4 -- -- 95
2019-10-23 12:00:00 6.8 22 Sudoeste 33 Sudoeste 0.4 -- -- 94
2019-10-23 11:00:00 6.7 21 Sudoeste 35 Sudoeste 0 -- -- 90
2019-10-23 10:00:00 6.5 22 Sudoeste 35 Sudoeste 0 -- -- 91
2019-10-23 09:00:00 5.8 23 Sudoeste 36 Sudoeste 0 -- -- 95
2019-10-23 08:00:00 5.8 13 Sudoeste 26 Sudoeste 0.2 -- -- 95
2019-10-23 07:00:00 6.1 10 Sudoeste 23 Sudoeste 0 -- -- 95
2019-10-23 06:00:00 6.7 10 Sudoeste 20 Sudoeste 0 -- -- 95
2019-10-23 05:00:00 6.9 12 Sudoeste 17 Sudoeste 0 -- -- 94
2019-10-23 04:00:00 6.7 10 Sudoeste 14 Sudoeste 0 -- -- 95
2019-10-23 03:00:00 6.4 11 Sudoeste 15 Oeste 0 -- -- 94
2019-10-23 02:00:00 6.4 4 Noroeste 8 Oeste 0.2 -- -- 94
2019-10-23 01:00:00 6.3 6 Oeste 18 Noroeste 0 -- -- 96
2019-10-23 00:00:00 6.3 14 Noroeste 21 Noroeste 0 -- -- 95
2019-10-22 23:00:00 6.5 12 Noroeste 22 Norte 0.4 -- -- 95
2019-10-22 22:00:00 7.3 13 Noroeste 26 Noroeste 0 -- -- 89
2019-10-22 21:00:00 7.6 8 Norte 17 Norte 0 -- -- 88
2019-10-22 20:00:00 7.8 9 Norte 15 Norte 0 -- -- 90
2019-10-22 19:00:00 8 9 Norte 20 Norte 0 -- -- 84
2019-10-22 18:00:00 9 10 Nordeste 17 Norte 0 -- -- 77
2019-10-22 17:00:00 9.2 7 Nordeste 13 Este 0 -- -- 78
2019-10-22 16:00:00 8.5 10 Este 34 Este 0 -- -- 86
2019-10-22 15:00:00 10.7 15 Este 26 Este 0 -- -- 66
2019-10-22 14:00:00 10.8 19 Este 27 Este 0 -- -- 67
2019-10-22 13:00:00 9.9 22 Este 31 Este 0 -- -- 74
2019-10-22 12:00:00 9.2 16 Este 26 Este 0 -- -- 78
2019-10-22 11:00:00 8.8 15 Este 28 Nordeste 0 -- -- 83
2019-10-22 10:00:00 8.4 16 Este 29 Este 0 -- -- 84
2019-10-22 09:00:00 7.9 12 Nordeste 21 Este 0 -- -- 89
2019-10-22 08:00:00 7.9 17 Este 30 Este 0 -- -- 88
2019-10-22 07:00:00 7.8 24 Este 30 Este 0 -- -- 83
2019-10-22 06:00:00 7.9 22 Este 33 Este 0 -- -- 82
2019-10-22 05:00:00 7.9 22 Este 29 Sudeste 0 -- -- 80
2019-10-22 04:00:00 7.9 18 Este 24 Este 0 -- -- 79
2019-10-22 03:00:00 7.7 16 Este 27 Este 0 -- -- 78
2019-10-22 02:00:00 7.6 20 Este 23 Este 0 -- -- 77
2019-10-22 01:00:00 7 15 Este 24 Este 0 -- -- 80
2019-10-22 00:00:00 7.5 21 Este 26 Este 0 -- -- 77
2019-10-21 23:00:00 8.7 19 Este 26 Este 0 -- -- 72
2019-10-21 22:00:00 9.5 15 Este 21 Este 0 -- -- 67
2019-10-21 21:00:00 9.6 14 Este 19 Este 0 -- -- 66
2019-10-21 20:00:00 10.7 8 Nordeste 12 Nordeste 0 -- -- 60
2019-10-21 19:00:00 12.8 9 Nordeste 15 Nordeste 0 -- -- 54
2019-10-21 18:00:00 14.6 5 Este 12 Este 0 -- -- 43
2019-10-21 17:00:00 15.3 5 Norte 17 Sudoeste 0 -- -- 45
2019-10-21 16:00:00 15.1 7 Sudoeste 14 Oeste 0 -- -- 47
2019-10-21 15:00:00 14.2 7 Oeste 16 Noroeste 0 -- -- 47
2019-10-21 14:00:00 12.6 8 Noroeste 15 Norte 0 -- -- 56
2019-10-21 13:00:00 11.5 4 Noroeste 11 Norte 0 -- -- 68
2019-10-21 12:00:00 11.3 5 Sur 10 Sur 0 -- -- 75
2019-10-21 11:00:00 8.6 2 Sudoeste 10 Sur 0 -- -- 88
2019-10-21 10:00:00 7.1 4 Sur 6 Sur 0 -- -- 95
2019-10-21 09:00:00 5.7 3 Sudeste 5 Sudeste 0 -- -- 94
2019-10-21 08:00:00 5.7 4 Sur 5 Sudeste 0 -- -- 94
2019-10-21 07:00:00 6.1 3 Sur 6 Sudeste 0 -- -- 93
2019-10-21 06:00:00 6.6 3 Sur 8 Sudeste 0 -- -- 93
2019-10-21 05:00:00 6.4 5 Sudeste 7 Sur 0 -- -- 93
2019-10-21 04:00:00 5.5 4 Sur 9 Sudeste 0 -- -- 92
2019-10-21 03:00:00 6.3 5 Sur 8 Sur 0 -- -- 91
2019-10-21 02:00:00 5.9 4 Sur 8 Sudeste 0 -- -- 92
2019-10-21 01:00:00 6.2 6 Sudeste 10 Sudoeste 0 -- -- 87
2019-10-21 00:00:00 6.9 8 Sudoeste 14 Oeste 0 -- -- 84
2019-10-20 23:00:00 7.7 9 Oeste 13 Sudoeste 0 -- -- 79
2019-10-20 22:00:00 8 9 Sudoeste 13 Oeste 0 -- -- 77
2019-10-20 21:00:00 8.8 7 Oeste 14 Oeste 0 -- -- 75
2019-10-20 20:00:00 9.4 7 Oeste 24 Oeste 0 -- -- 73
2019-10-20 19:00:00 10.4 18 Noroeste 36 Noroeste 0 -- -- 67
2019-10-20 18:00:00 10.7 19 Noroeste 34 Noroeste 0 -- -- 67
2019-10-20 17:00:00 11.8 23 Noroeste 34 Noroeste 0 -- -- 64
2019-10-20 16:00:00 11.6 19 Noroeste 37 Oeste 0 -- -- 70
2019-10-20 15:00:00 12.2 22 Oeste 36 Oeste 0 -- -- 66
2019-10-20 14:00:00 11.4 22 Oeste 39 Sudoeste 0 -- -- 69
2019-10-20 13:00:00 11.4 25 Oeste 41 Oeste 0 -- -- 70
2019-10-20 12:00:00 11.4 31 Sudoeste 44 Sudoeste 0.2 -- -- 75
2019-10-20 11:00:00 9.6 20 Oeste 29 Sudoeste 0 -- -- 83
2019-10-20 10:00:00 9 13 Oeste 30 Oeste 0 -- -- 89
2019-10-20 09:00:00 9.4 20 Oeste 30 Oeste 0 -- -- 87
2019-10-20 08:00:00 9.6 13 Sudoeste 28 Sudoeste 0 -- -- 91
2019-10-20 07:00:00 9.9 9 Sudoeste 23 Oeste 0 -- -- 92
2019-10-20 06:00:00 10.1 17 Oeste 33 Oeste 0 -- -- 90
2019-10-20 05:00:00 10.6 10 Oeste 31 Oeste 0 -- -- 92
2019-10-20 04:00:00 11 21 Oeste 32 Oeste 0 -- -- 95
2019-10-20 03:00:00 11.1 14 Oeste 32 Oeste 1 -- -- 94
2019-10-20 02:00:00 11.9 14 Oeste 53 Sudoeste 0.4 -- -- 90
2019-10-20 01:00:00 14 28 Sudoeste 44 Sudoeste 0.2 -- -- 89
2019-10-20 00:00:00 14.1 14 Sudoeste 35 Sudoeste 0 -- -- 87
2019-10-19 23:00:00 14.7 28 Sudoeste 45 Sudoeste 0 -- -- 82
2019-10-19 22:00:00 15 16 Sur 28 Sur 0 -- -- 68
2019-10-19 21:00:00 15.2 13 Sudoeste 24 Sudoeste 0 -- -- 66
2019-10-19 20:00:00 16.5 16 Sudoeste 39 Sudoeste 0 -- -- 60
2019-10-19 19:00:00 17.3 32 Sudoeste 48 Sudoeste 0 -- -- 57
2019-10-19 18:00:00 18.2 37 Sudoeste 53 Sudoeste 0 -- -- 56
2019-10-19 17:00:00 19.2 33 Sudoeste 49 Sudoeste 0 -- -- 53
2019-10-19 16:00:00 17.8 31 Sudoeste 47 Sudoeste 0 -- -- 59
2019-10-19 15:00:00 17.6 29 Sudoeste 45 Sudoeste 0 -- -- 63
2019-10-19 14:00:00 17.3 28 Sudoeste 42 Sudoeste 0 -- -- 66
2019-10-19 13:00:00 16.9 28 Sudoeste 40 Sudoeste 0 -- -- 70
2019-10-19 12:00:00 16 26 Sudoeste 37 Sudoeste 0 -- -- 76
2019-10-19 11:00:00 14.8 24 Sudoeste 34 Sudoeste 0 -- -- 83
2019-10-19 10:00:00 13.9 21 Sudoeste 31 Sudoeste 0 -- -- 87
2019-10-19 09:00:00 13.4 17 Sudoeste 26 Sudoeste 0 -- -- 88
2019-10-19 08:00:00 13.2 14 Sudoeste 22 Sudoeste 0 -- -- 91
2019-10-19 07:00:00 12.9 15 Sudoeste 31 Sudoeste 0 -- -- 91
2019-10-19 06:00:00 12.8 13 Sudoeste 22 Sudoeste 0 -- -- 90
2019-10-19 05:00:00 13.1 18 Sudoeste 32 Sudoeste 0 -- -- 90
2019-10-19 04:00:00 13.3 14 Sudoeste 23 Sudoeste 0 -- -- 89
2019-10-19 03:00:00 13.5 6 Sudoeste 23 Sudoeste 0 -- -- 86
2019-10-19 02:00:00 14.5 16 Sudoeste 22 Sudoeste 0 -- -- 84
2019-10-19 01:00:00 15 11 Sudoeste 27 Sudoeste 0 -- -- 80
2019-10-19 00:00:00 15.6 19 Sudoeste 28 Sudoeste 0 -- -- 79
2019-10-18 23:00:00 15.8 14 Sudoeste 25 Sudoeste 0 -- -- 77
2019-10-18 22:00:00 15.4 12 Sudoeste 24 Sudoeste 0 -- -- 73
2019-10-18 21:00:00 16.4 9 Sudoeste 22 Sudoeste 0 -- -- 69
2019-10-18 20:00:00 17.8 10 Sudoeste 27 Sudoeste 0 -- -- 64
2019-10-18 19:00:00 19.7 17 Sudoeste 30 Sudoeste 0 -- -- 57
2019-10-18 18:00:00 20.6 14 Sudoeste 32 Sudoeste 0 -- -- 55
2019-10-18 17:00:00 21.3 18 Oeste 33 Oeste 0 -- -- 53
2019-10-18 16:00:00 21.6 15 Oeste 28 Sudoeste 0 -- -- 51
2019-10-18 15:00:00 21.9 18 Oeste 35 Sudoeste 0 -- -- 51
2019-10-18 14:00:00 21.4 18 Oeste 34 Sudoeste 0 -- -- 52
2019-10-18 13:00:00 20 18 Sudoeste 33 Sudoeste 0 -- -- 55
2019-10-18 12:00:00 17.7 12 Sudoeste 22 Sudoeste 0 -- -- 58
2019-10-18 11:00:00 14.4 10 Sur 18 Sur 0 -- -- 59
2019-10-18 10:00:00 12.1 8 Sur 13 Sur 0 -- -- 62
2019-10-18 09:00:00 10.5 5 Sur 10 Sur 0 -- -- 63
2019-10-18 08:00:00 10.6 7 Sur 9 Sudeste 0 -- -- 60
2019-10-18 07:00:00 10.8 6 Sur 11 Sudoeste 0 -- -- 58
2019-10-18 06:00:00 10.7 8 Sur 13 Sur 0 -- -- 58
2019-10-18 05:00:00 11.2 9 Sur 13 Sur 0 -- -- 55
2019-10-18 04:00:00 11.1 6 Sur 10 Sur 0 -- -- 56
2019-10-18 03:00:00 11.5 6 Sur 12 Sudoeste 0 -- -- 55
2019-10-18 02:00:00 12.4 7 Sur 12 Sur 0 -- -- 53
2019-10-18 01:00:00 13.1 6 Sur 9 Sur 0 -- -- 51
2019-10-18 00:00:00 13.5 8 Sudoeste 12 Sur 0 -- -- 50